Flight Track Log - Related Links

Times and Time Zones

All times are in EDT time to prevent confusion due to time zone crossing. See the SWA1535 flight status page for this flight to view local times or setup timezone preferences in your user account.

Time Position Orientation Groundspeed Altitude Reporting Facility
EDT Latitude Longitude Course Direction KTS MPH feet Rate Location/Type
Fri 09:18:45 PM 41.3358 -95.9397 318° Northwest 177 204 4,000  Level Minneapolis Center
Fri 09:19:14 PM 41.3492 -95.9472 337° Northwest 179 206 5,300 3,231 Climbing Minneapolis Center
Fri 09:20:16 PM 41.3933 -96.0344 304° West 241 277 8,900 3,048 Climbing Minneapolis Center
Fri 09:21:18 PM 41.4206 -96.1369 290° West 287 330 11,600 2,927 Climbing Minneapolis Center
Fri 09:22:19 PM 41.4497 -96.2661 287° West 334 384 14,900 3,220 Climbing Minneapolis Center
Fri 09:23:21 PM 41.4692 -96.4025 281° West 364 419 18,200 3,048 Climbing Minneapolis Center
Fri 09:24:23 PM 41.4628 -96.5481 267° West 392 451 21,200 2,806 Climbing Minneapolis Center
Fri 09:25:25 PM 41.4558 -96.7294 267° West 404 465 24,000 2,468 Climbing Minneapolis Center
Fri 09:26:27 PM 41.4483 -96.8931 267° West 422 486 26,300 2,146 Climbing Minneapolis Center
Fri 09:27:28 PM 41.4408 -97.0592 267° West 437 503 28,400 1,854 Climbing Minneapolis Center
Fri 09:28:30 PM 41.4319 -97.2339 266° West 453 521 30,100 1,597 Climbing Minneapolis Center
Fri 09:29:32 PM 41.4231 -97.4161 266° West 476 548 31,700 1,887 Climbing Minneapolis Center
Fri 09:30:34 PM 41.4142 -97.5956 266° West 487 560 34,000 2,439 Climbing Minneapolis Center
Fri 09:31:35 PM 41.4061 -97.7708 267° West 481 554 36,700 2,000 Climbing Minneapolis Center
Fri 09:32:37 PM 41.3964 -97.9675 266° West 451 519 38,100 1,597 Climbing Minneapolis Center
Fri 09:33:39 PM 41.3875 -98.1342 266° West 448 516 40,000 919 Climbing Minneapolis Center
Fri 09:34:41 PM 41.3789 -98.2986 266° West 447 514 40,000  Level Minneapolis Center
Fri 09:35:42 PM 41.3472 -98.4706 256° West 450 518 40,000  Level Minneapolis Center
Fri 09:36:44 PM 41.3117 -98.6142 252° West 448 516 40,000  Level Minneapolis Center
Fri 09:37:46 PM 41.2742 -98.7714 252° West 447 514 40,000  Level Minneapolis Center
Fri 09:38:29 PM 41.2400 -98.9053 251° West 446 513 40,000  Level Denver Center
Fri 09:39:31 PM 41.2311 -99.0617 266° West 446 513 40,000  Level Denver Center
Fri 09:40:33 PM 41.2294 -99.2108 269° West 438 504 40,000  Level Denver Center
Fri 09:41:35 PM 41.2283 -99.4078 270° West 443 510 40,000  Level Denver Center
Fri 09:42:37 PM 41.2267 -99.5806 269° West 444 511 40,000  Level Denver Center
Fri 09:43:39 PM 41.2214 -99.7364 267° West 443 510 40,000  Level Denver Center
Fri 09:44:41 PM 41.1917 -99.8900 256° West 448 516 40,000  Level Denver Center
Fri 09:45:43 PM 41.1589 -100.0669 256° West 445 512 40,000  Level Denver Center
Fri 09:46:45 PM 41.1308 -100.2186 256° West 445 512 40,000  Level Denver Center
Fri 09:47:47 PM 41.0983 -100.3947 256° West 443 510 40,000  Level Denver Center
Fri 09:48:50 PM 41.0703 -100.5453 256° West 442 509 40,000  Level Denver Center
Fri 09:49:52 PM 41.0369 -100.7211 256° West 445 512 40,000  Level Denver Center
Fri 09:50:54 PM 41.0031 -100.8942 256° West 443 510 40,000  Level Denver Center
Fri 09:51:56 PM 40.9742 -101.0422 256° West 439 505 40,000  Level Denver Center
Fri 09:52:58 PM 40.9414 -101.2147 256° West 436 502 40,000  Level Denver Center
Fri 09:54:00 PM 40.9133 -101.3578 255° West 426 490 40,000  Level Denver Center
Fri 09:55:02 PM 40.8789 -101.5242 255° West 421 484 40,000  Level Denver Center
Fri 09:56:04 PM 40.8511 -101.6700 256° West 427 491 40,000  Level Denver Center
Fri 09:57:06 PM 40.8161 -101.8414 255° West 435 501 40,000  Level Denver Center
Fri 09:58:08 PM 40.7850 -101.9875 254° West 434 499 40,000  Level Denver Center
Fri 09:59:10 PM 40.7511 -102.1600 256° West 437 503 40,000  Level Denver Center
Fri 10:00:12 PM 40.7206 -102.3056 255° West 433 498 40,000  Level Denver Center
Fri 10:01:14 PM 40.6903 -102.4503 255° West 430 495 40,000  Level Denver Center
Fri 10:02:16 PM 40.6550 -102.6189 255° West 429 494 40,000  Level Denver Center
Fri 10:03:18 PM 40.6256 -102.7664 255° West 428 493 40,000 -242 Level Denver Center
Fri 10:04:20 PM 40.5928 -102.9192 254° West 431 496 39,500 -1,403 Descending Denver Center
Fri 10:05:22 PM 40.5611 -103.0689 254° West 421 484 37,100 -2,855 Descending Denver Center
Fri 10:06:24 PM 40.5244 -103.2419 254° West 418 481 33,600 -3,000 Descending Denver Center
Fri 10:07:26 PM 40.4928 -103.3878 254° West 413 475 30,900 -2,419 Descending Denver Center
Fri 10:08:28 PM 40.4614 -103.5289 254° West 400 460 28,600 -2,177 Descending Denver Center
Fri 10:09:30 PM 40.4325 -103.6647 254° West 388 447 26,400 -2,129 Descending Denver Center
Fri 10:10:32 PM 40.4039 -103.8006 255° West 386 444 24,200 -2,032 Descending Denver Center
Fri 10:11:34 PM 40.3711 -103.9419 253° West 368 423 22,200 -1,500 Descending Denver Center
Fri 10:12:36 PM 40.3178 -104.0464 236° Southwest 360 414 21,100 -1,452 Descending Denver Center
Fri 10:13:38 PM 40.2403 -104.1339 221° Southwest 344 396 19,200 -1,707 Descending Denver Center
Fri 10:14:39 PM 40.1669 -104.2097 218° Southwest 338 389 17,600 -1,366 Descending Denver Center
Fri 10:15:41 PM 40.0975 -104.2864 220° Southwest 329 379 16,400 -1,403 Descending Denver Center
Fri 10:16:43 PM 40.0264 -104.3639 220° Southwest 311 358 14,700 -1,541 Descending Denver Center
Fri 10:17:30 PM 39.9833 -104.4167 223° Southwest 302 348 13,600 -1,514 Descending Denver TRACON
Fri 10:18:30 PM 39.9167 -104.4833 217° Southwest 298 343 12,000 -1,200 Descending Denver TRACON
Fri 10:19:30 PM 39.8333 -104.5000 189° South 286 329 11,200 -684 Descending Denver TRACON
Fri 10:19:49 PM 39.8089 -104.5019 183° South 281 323 11,100 -593 Descending Denver Center
Fri 10:20:51 PM 39.7339 -104.5019 180° South 268 308 10,400 -677 Descending Denver Center
Fri 10:21:53 PM 39.6592 -104.4986 178° South 246 283 9,700 -683 Descending Denver Center
Fri 10:22:54 PM 39.6025 -104.5153 193° South 213 245 9,000 -829 Descending Denver Center
Fri 10:23:56 PM 39.6061 -104.5836 274° West 198 228 8,000 -629 Descending Denver Center
Fri 10:24:58 PM 39.6547 -104.6186 331° Northwest 181 208 7,700 -387 Descending Denver Center
Fri 10:26:00 PM 39.7025 -104.6425 339° North 171 197 7,200 -341 Descending Denver Center
Fri 10:27:01 PM 39.7514 -104.6431 359° North 162 186 7,000 -488 Descending Denver Center
Fri 10:28:03 PM 39.7936 -104.6431 360° North 152 175 6,200 -726 Descending Denver Center
Fri 10:29:05 PM 39.8306 -104.6417 North 136 157 5,500 -677 Descending Denver Center
Fri 10:31:00 PM 39.8500 -104.6667 North  Level FlightAware Approximate
Fri 10:38:00 PM 39.8617 -104.6732 North  Level Estimated
Fri 10:39:00 PM 39.8617 -104.6732 North  Level Estimated
Fri 10:40:00 PM 39.8617 -104.6732 North  Level Estimated

Login

Don't have an account? Register now (free) for customized features, flight alerts, and more!